sensor_id;sensor_type;location;lat;lon;timestamp;temperature;humidity
70154;DHT22;57519;51.494;-2.626;2022-08-14T00:00:35;19.27;62.30
70154;DHT22;57519;51.494;-2.626;2022-08-14T00:03:00;19.27;61.58
70154;DHT22;57519;51.494;-2.626;2022-08-14T00:05:26;19.26;61.38
70154;DHT22;57519;51.494;-2.626;2022-08-14T00:07:51;19.24;61.54
70154;DHT22;57519;51.494;-2.626;2022-08-14T00:10:19;19.13;62.01
70154;DHT22;57519;51.494;-2.626;2022-08-14T00:12:52;19.13;62.36
70154;DHT22;57519;51.494;-2.626;2022-08-14T00:15:21;19.06;62.76
70154;DHT22;57519;51.494;-2.626;2022-08-14T00:17:48;19.06;63.33
70154;DHT22;57519;51.494;-2.626;2022-08-14T00:20:15;19.07;63.15
70154;DHT22;57519;51.494;-2.626;2022-08-14T00:22:41;19.04;62.57
70154;DHT22;57519;51.494;-2.626;2022-08-14T00:25:08;18.96;63.21
70154;DHT22;57519;51.494;-2.626;2022-08-14T00:27:33;18.92;63.11
70154;DHT22;57519;51.494;-2.626;2022-08-14T00:29:59;18.95;62.18
70154;DHT22;57519;51.494;-2.626;2022-08-14T00:32:24;18.92;61.62
70154;DHT22;57519;51.494;-2.626;2022-08-14T00:34:50;18.83;62.05
70154;DHT22;57519;51.494;-2.626;2022-08-14T00:37:15;18.80;63.78
70154;DHT22;57519;51.494;-2.626;2022-08-14T00:39:41;18.75;64.19
70154;DHT22;57519;51.494;-2.626;2022-08-14T00:42:07;18.71;63.91
70154;DHT22;57519;51.494;-2.626;2022-08-14T00:44:32;18.69;64.36
70154;DHT22;57519;51.494;-2.626;2022-08-14T00:46:58;18.75;64.14
70154;DHT22;57519;51.494;-2.626;2022-08-14T00:49:24;18.62;64.96
70154;DHT22;57519;51.494;-2.626;2022-08-14T00:51:50;18.61;64.83
70154;DHT22;57519;51.494;-2.626;2022-08-14T00:54:16;18.65;64.36
70154;DHT22;57519;51.494;-2.626;2022-08-14T00:56:43;18.65;63.54
70154;DHT22;57519;51.494;-2.626;2022-08-14T00:59:09;18.66;63.24
70154;DHT22;57519;51.494;-2.626;2022-08-14T01:01:36;18.58;63.12
70154;DHT22;57519;51.494;-2.626;2022-08-14T01:04:03;18.49;62.96
70154;DHT22;57519;51.494;-2.626;2022-08-14T01:06:29;18.47;63.43
70154;DHT22;57519;51.494;-2.626;2022-08-14T01:09:00;18.35;64.29
70154;DHT22;57519;51.494;-2.626;2022-08-14T01:11:27;18.35;64.48
70154;DHT22;57519;51.494;-2.626;2022-08-14T01:13:52;18.32;63.98
70154;DHT22;57519;51.494;-2.626;2022-08-14T01:16:23;18.28;64.25
70154;DHT22;57519;51.494;-2.626;2022-08-14T01:18:49;18.28;64.75
70154;DHT22;57519;51.494;-2.626;2022-08-14T01:21:35;18.25;64.19
70154;DHT22;57519;51.494;-2.626;2022-08-14T01:24:02;18.25;63.76
70154;DHT22;57519;51.494;-2.626;2022-08-14T01:26:28;18.14;64.42
70154;DHT22;57519;51.494;-2.626;2022-08-14T01:28:56;18.10;64.86
70154;DHT22;57519;51.494;-2.626;2022-08-14T01:31:25;18.07;65.41
70154;DHT22;57519;51.494;-2.626;2022-08-14T01:33:52;18.04;65.10
70154;DHT22;57519;51.494;-2.626;2022-08-14T01:36:21;18.07;64.58
70154;DHT22;57519;51.494;-2.626;2022-08-14T01:38:49;18.00;64.90
70154;DHT22;57519;51.494;-2.626;2022-08-14T01:41:17;18.00;64.91
70154;DHT22;57519;51.494;-2.626;2022-08-14T01:43:56;17.96;65.34
70154;DHT22;57519;51.494;-2.626;2022-08-14T01:46:31;17.90;66.09
70154;DHT22;57519;51.494;-2.626;2022-08-14T01:48:59;17.87;66.13
70154;DHT22;57519;51.494;-2.626;2022-08-14T01:51:25;17.90;65.86
70154;DHT22;57519;51.494;-2.626;2022-08-14T01:54:02;17.93;65.49
70154;DHT22;57519;51.494;-2.626;2022-08-14T01:56:31;18.05;65.04
70154;DHT22;57519;51.494;-2.626;2022-08-14T01:59:01;17.97;64.50
70154;DHT22;57519;51.494;-2.626;2022-08-14T02:01:26;18.00;64.08
70154;DHT22;57519;51.494;-2.626;2022-08-14T02:03:52;17.93;64.24
70154;DHT22;57519;51.494;-2.626;2022-08-14T02:06:18;17.91;64.11
70154;DHT22;57519;51.494;-2.626;2022-08-14T02:08:43;17.82;64.68
70154;DHT22;57519;51.494;-2.626;2022-08-14T02:11:10;17.77;65.54
70154;DHT22;57519;51.494;-2.626;2022-08-14T02:13:59;17.79;66.63
70154;DHT22;57519;51.494;-2.626;2022-08-14T02:16:31;17.84;66.61
70154;DHT22;57519;51.494;-2.626;2022-08-14T02:19:03;17.59;67.59
70154;DHT22;57519;51.494;-2.626;2022-08-14T02:21:30;17.53;67.50
70154;DHT22;57519;51.494;-2.626;2022-08-14T02:23:58;17.52;66.89
70154;DHT22;57519;51.494;-2.626;2022-08-14T02:26:28;17.48;66.65
70154;DHT22;57519;51.494;-2.626;2022-08-14T02:28:56;17.50;66.99
70154;DHT22;57519;51.494;-2.626;2022-08-14T02:31:25;17.50;66.91
70154;DHT22;57519;51.494;-2.626;2022-08-14T02:33:54;17.48;67.04
70154;DHT22;57519;51.494;-2.626;2022-08-14T02:36:21;17.45;66.58
70154;DHT22;57519;51.494;-2.626;2022-08-14T02:38:47;17.52;66.06
70154;DHT22;57519;51.494;-2.626;2022-08-14T02:41:14;17.50;65.62
70154;DHT22;57519;51.494;-2.626;2022-08-14T02:43:39;17.46;65.75
70154;DHT22;57519;51.494;-2.626;2022-08-14T02:46:06;17.35;66.13
70154;DHT22;57519;51.494;-2.626;2022-08-14T02:48:38;17.31;66.74
70154;DHT22;57519;51.494;-2.626;2022-08-14T02:51:06;17.31;66.84
70154;DHT22;57519;51.494;-2.626;2022-08-14T02:53:32;17.28;66.80
70154;DHT22;57519;51.494;-2.626;2022-08-14T02:55:58;17.25;66.85
70154;DHT22;57519;51.494;-2.626;2022-08-14T02:58:24;17.18;67.21
70154;DHT22;57519;51.494;-2.626;2022-08-14T03:00:49;17.08;68.20
70154;DHT22;57519;51.494;-2.626;2022-08-14T03:03:16;17.01;68.51
70154;DHT22;57519;51.494;-2.626;2022-08-14T03:05:42;17.03;68.11
70154;DHT22;57519;51.494;-2.626;2022-08-14T03:08:12;16.95;68.02
70154;DHT22;57519;51.494;-2.626;2022-08-14T03:10:38;16.94;68.29
70154;DHT22;57519;51.494;-2.626;2022-08-14T03:13:04;16.85;68.56
70154;DHT22;57519;51.494;-2.626;2022-08-14T03:15:31;16.79;68.96
70154;DHT22;57519;51.494;-2.626;2022-08-14T03:18:11;16.80;68.92
70154;DHT22;57519;51.494;-2.626;2022-08-14T03:20:37;16.77;68.57
70154;DHT22;57519;51.494;-2.626;2022-08-14T03:23:03;16.80;68.48
70154;DHT22;57519;51.494;-2.626;2022-08-14T03:25:29;16.77;68.69
70154;DHT22;57519;51.494;-2.626;2022-08-14T03:28:08;16.83;68.85
70154;DHT22;57519;51.494;-2.626;2022-08-14T03:30:34;16.84;68.90
70154;DHT22;57519;51.494;-2.626;2022-08-14T03:33:00;16.73;69.20
70154;DHT22;57519;51.494;-2.626;2022-08-14T03:35:26;16.62;69.32
70154;DHT22;57519;51.494;-2.626;2022-08-14T03:37:51;16.56;69.41
70154;DHT22;57519;51.494;-2.626;2022-08-14T03:40:21;16.55;69.55
70154;DHT22;57519;51.494;-2.626;2022-08-14T03:42:50;16.41;70.00
70154;DHT22;57519;51.494;-2.626;2022-08-14T03:45:16;16.43;70.44
70154;DHT22;57519;51.494;-2.626;2022-08-14T03:47:42;16.33;70.67
70154;DHT22;57519;51.494;-2.626;2022-08-14T03:50:09;16.33;70.37
70154;DHT22;57519;51.494;-2.626;2022-08-14T03:52:40;16.33;69.90
70154;DHT22;57519;51.494;-2.626;2022-08-14T03:55:10;16.38;70.09
70154;DHT22;57519;51.494;-2.626;2022-08-14T03:57:38;16.34;70.24
70154;DHT22;57519;51.494;-2.626;2022-08-14T04:00:10;16.36;70.13
70154;DHT22;57519;51.494;-2.626;2022-08-14T04:02:39;16.33;69.88
70154;DHT22;57519;51.494;-2.626;2022-08-14T04:05:07;16.28;69.95
70154;DHT22;57519;51.494;-2.626;2022-08-14T04:07:33;16.21;69.97
70154;DHT22;57519;51.494;-2.626;2022-08-14T04:09:59;16.19;70.04
70154;DHT22;57519;51.494;-2.626;2022-08-14T04:12:25;16.21;69.68
70154;DHT22;57519;51.494;-2.626;2022-08-14T04:14:51;16.12;69.61
70154;DHT22;57519;51.494;-2.626;2022-08-14T04:17:18;16.02;70.42
70154;DHT22;57519;51.494;-2.626;2022-08-14T04:19:44;16.02;70.95
70154;DHT22;57519;51.494;-2.626;2022-08-14T04:22:10;16.02;70.96
70154;DHT22;57519;51.494;-2.626;2022-08-14T04:24:37;16.01;70.49
70154;DHT22;57519;51.494;-2.626;2022-08-14T04:27:03;16.00;70.31
70154;DHT22;57519;51.494;-2.626;2022-08-14T04:29:28;15.98;69.79
70154;DHT22;57519;51.494;-2.626;2022-08-14T04:31:54;15.90;70.28
70154;DHT22;57519;51.494;-2.626;2022-08-14T04:34:19;15.80;70.52
70154;DHT22;57519;51.494;-2.626;2022-08-14T04:36:45;15.80;70.72
70154;DHT22;57519;51.494;-2.626;2022-08-14T04:39:29;15.75;70.33
70154;DHT22;57519;51.494;-2.626;2022-08-14T04:42:13;15.71;70.59
70154;DHT22;57519;51.494;-2.626;2022-08-14T04:44:57;15.64;71.00
70154;DHT22;57519;51.494;-2.626;2022-08-14T04:47:22;15.63;71.21
70154;DHT22;57519;51.494;-2.626;2022-08-14T04:50:06;15.64;70.99
70154;DHT22;57519;51.494;-2.626;2022-08-14T04:52:32;15.60;70.67
70154;DHT22;57519;51.494;-2.626;2022-08-14T04:54:57;15.70;70.41
70154;DHT22;57519;51.494;-2.626;2022-08-14T04:57:23;15.68;70.70
70154;DHT22;57519;51.494;-2.626;2022-08-14T04:59:49;15.66;70.83
70154;DHT22;57519;51.494;-2.626;2022-08-14T05:02:17;15.66;70.56
70154;DHT22;57519;51.494;-2.626;2022-08-14T05:04:42;15.60;70.24
70154;DHT22;57519;51.494;-2.626;2022-08-14T05:07:07;15.66;70.05
70154;DHT22;57519;51.494;-2.626;2022-08-14T05:09:33;15.73;69.98
70154;DHT22;57519;51.494;-2.626;2022-08-14T05:11:58;15.60;70.52
70154;DHT22;57519;51.494;-2.626;2022-08-14T05:14:24;15.61;70.97
70154;DHT22;57519;51.494;-2.626;2022-08-14T05:16:50;15.66;71.20
70154;DHT22;57519;51.494;-2.626;2022-08-14T05:19:16;15.70;71.20
70154;DHT22;57519;51.494;-2.626;2022-08-14T05:21:41;15.68;70.89
70154;DHT22;57519;51.494;-2.626;2022-08-14T05:24:08;15.75;70.43
70154;DHT22;57519;51.494;-2.626;2022-08-14T05:26:37;15.74;70.52
70154;DHT22;57519;51.494;-2.626;2022-08-14T05:29:06;15.78;70.53
70154;DHT22;57519;51.494;-2.626;2022-08-14T05:31:34;15.84;70.36
70154;DHT22;57519;51.494;-2.626;2022-08-14T05:34:03;15.88;70.13
70154;DHT22;57519;51.494;-2.626;2022-08-14T05:36:29;15.98;70.21
70154;DHT22;57519;51.494;-2.626;2022-08-14T05:38:54;16.08;70.00
70154;DHT22;57519;51.494;-2.626;2022-08-14T05:41:20;16.08;70.14
70154;DHT22;57519;51.494;-2.626;2022-08-14T05:43:47;16.11;70.10
70154;DHT22;57519;51.494;-2.626;2022-08-14T05:46:15;16.22;70.19
70154;DHT22;57519;51.494;-2.626;2022-08-14T05:48:47;16.25;70.58
70154;DHT22;57519;51.494;-2.626;2022-08-14T05:51:13;16.30;70.56
70154;DHT22;57519;51.494;-2.626;2022-08-14T05:53:38;16.25;70.79
70154;DHT22;57519;51.494;-2.626;2022-08-14T05:56:04;16.32;70.67
70154;DHT22;57519;51.494;-2.626;2022-08-14T05:58:29;16.50;69.95
70154;DHT22;57519;51.494;-2.626;2022-08-14T06:00:55;16.55;70.06
70154;DHT22;57519;51.494;-2.626;2022-08-14T06:03:22;16.69;70.06
70154;DHT22;57519;51.494;-2.626;2022-08-14T06:05:50;16.81;70.16
70154;DHT22;57519;51.494;-2.626;2022-08-14T06:08:22;16.83;70.25
70154;DHT22;57519;51.494;-2.626;2022-08-14T06:10:49;17.00;69.87
70154;DHT22;57519;51.494;-2.626;2022-08-14T06:13:14;17.01;69.94
70154;DHT22;57519;51.494;-2.626;2022-08-14T06:15:41;17.11;70.19
70154;DHT22;57519;51.494;-2.626;2022-08-14T06:18:07;17.12;70.52
70154;DHT22;57519;51.494;-2.626;2022-08-14T06:20:32;17.28;69.92
70154;DHT22;57519;51.494;-2.626;2022-08-14T06:22:58;17.29;69.94
70154;DHT22;57519;51.494;-2.626;2022-08-14T06:25:24;17.43;69.61
70154;DHT22;57519;51.494;-2.626;2022-08-14T06:27:50;17.49;69.05
70154;DHT22;57519;51.494;-2.626;2022-08-14T06:30:18;17.57;69.17
70154;DHT22;57519;51.494;-2.626;2022-08-14T06:32:45;17.63;69.53
70154;DHT22;57519;51.494;-2.626;2022-08-14T06:35:11;17.76;69.28
70154;DHT22;57519;51.494;-2.626;2022-08-14T06:40:09;18.11;67.75
70154;DHT22;57519;51.494;-2.626;2022-08-14T06:42:35;18.24;68.02
70154;DHT22;57519;51.494;-2.626;2022-08-14T06:45:01;18.41;66.61
70154;DHT22;57519;51.494;-2.626;2022-08-14T06:47:27;18.56;66.90
70154;DHT22;57519;51.494;-2.626;2022-08-14T06:49:52;18.66;66.40
70154;DHT22;57519;51.494;-2.626;2022-08-14T06:52:18;18.83;66.78
70154;DHT22;57519;51.494;-2.626;2022-08-14T06:54:44;18.85;66.77
70154;DHT22;57519;51.494;-2.626;2022-08-14T06:57:10;18.99;66.51
70154;DHT22;57519;51.494;-2.626;2022-08-14T06:59:35;19.17;64.77
70154;DHT22;57519;51.494;-2.626;2022-08-14T07:02:01;19.41;62.73
70154;DHT22;57519;51.494;-2.626;2022-08-14T07:04:45;19.71;61.46
70154;DHT22;57519;51.494;-2.626;2022-08-14T07:07:39;20.16;59.51
70154;DHT22;57519;51.494;-2.626;2022-08-14T07:10:06;20.51;56.99
70154;DHT22;57519;51.494;-2.626;2022-08-14T07:12:33;20.87;55.23
70154;DHT22;57519;51.494;-2.626;2022-08-14T07:14:59;21.18;52.22
70154;DHT22;57519;51.494;-2.626;2022-08-14T07:17:25;21.39;51.21
70154;DHT22;57519;51.494;-2.626;2022-08-14T07:19:51;21.56;50.95
70154;DHT22;57519;51.494;-2.626;2022-08-14T07:22:17;21.75;50.81
70154;DHT22;57519;51.494;-2.626;2022-08-14T07:24:42;21.81;49.64
70154;DHT22;57519;51.494;-2.626;2022-08-14T07:27:08;21.90;49.71
70154;DHT22;57519;51.494;-2.626;2022-08-14T07:29:33;21.97;50.55
70154;DHT22;57519;51.494;-2.626;2022-08-14T07:31:59;22.11;49.65
70154;DHT22;57519;51.494;-2.626;2022-08-14T07:34:24;22.15;50.14
70154;DHT22;57519;51.494;-2.626;2022-08-14T07:36:50;22.21;48.56
70154;DHT22;57519;51.494;-2.626;2022-08-14T07:39:16;22.29;48.68
70154;DHT22;57519;51.494;-2.626;2022-08-14T07:41:42;22.46;48.22
70154;DHT22;57519;51.494;-2.626;2022-08-14T07:44:09;22.52;48.10
70154;DHT22;57519;51.494;-2.626;2022-08-14T07:46:38;22.53;48.81
70154;DHT22;57519;51.494;-2.626;2022-08-14T07:49:04;22.64;48.68
70154;DHT22;57519;51.494;-2.626;2022-08-14T07:51:30;22.86;48.03
70154;DHT22;57519;51.494;-2.626;2022-08-14T07:53:56;22.84;47.90
70154;DHT22;57519;51.494;-2.626;2022-08-14T07:56:22;23.01;47.86
70154;DHT22;57519;51.494;-2.626;2022-08-14T07:58:48;23.04;47.82
70154;DHT22;57519;51.494;-2.626;2022-08-14T08:01:15;23.07;48.08
70154;DHT22;57519;51.494;-2.626;2022-08-14T08:03:44;23.18;47.58
70154;DHT22;57519;51.494;-2.626;2022-08-14T08:06:11;23.18;47.23
70154;DHT22;57519;51.494;-2.626;2022-08-14T08:08:37;23.28;47.32
70154;DHT22;57519;51.494;-2.626;2022-08-14T08:11:03;23.49;47.21
70154;DHT22;57519;51.494;-2.626;2022-08-14T08:13:32;23.46;46.47
70154;DHT22;57519;51.494;-2.626;2022-08-14T08:15:58;23.56;47.30
70154;DHT22;57519;51.494;-2.626;2022-08-14T08:18:24;23.61;46.23
70154;DHT22;57519;51.494;-2.626;2022-08-14T08:20:53;23.72;46.13
70154;DHT22;57519;51.494;-2.626;2022-08-14T08:23:21;23.82;46.03
70154;DHT22;57519;51.494;-2.626;2022-08-14T08:25:48;23.89;45.75
70154;DHT22;57519;51.494;-2.626;2022-08-14T08:30:52;24.04;45.79
70154;DHT22;57519;51.494;-2.626;2022-08-14T08:33:20;24.20;45.88
70154;DHT22;57519;51.494;-2.626;2022-08-14T08:35:46;24.34;45.40
70154;DHT22;57519;51.494;-2.626;2022-08-14T08:38:15;24.50;45.29
70154;DHT22;57519;51.494;-2.626;2022-08-14T08:40:43;24.57;44.85
70154;DHT22;57519;51.494;-2.626;2022-08-14T08:45:40;24.47;45.14
70154;DHT22;57519;51.494;-2.626;2022-08-14T08:48:05;24.48;44.68
70154;DHT22;57519;51.494;-2.626;2022-08-14T08:50:36;24.62;45.08
70154;DHT22;57519;51.494;-2.626;2022-08-14T08:53:06;24.72;44.88
70154;DHT22;57519;51.494;-2.626;2022-08-14T08:55:35;24.73;44.65
70154;DHT22;57519;51.494;-2.626;2022-08-14T08:58:05;24.80;45.00
70154;DHT22;57519;51.494;-2.626;2022-08-14T09:00:33;24.86;44.86
70154;DHT22;57519;51.494;-2.626;2022-08-14T09:03:06;24.90;44.58
70154;DHT22;57519;51.494;-2.626;2022-08-14T09:05:34;25.02;44.63
70154;DHT22;57519;51.494;-2.626;2022-08-14T09:10:45;25.36;43.53
70154;DHT22;57519;51.494;-2.626;2022-08-14T09:13:12;25.43;42.79
70154;DHT22;57519;51.494;-2.626;2022-08-14T09:15:39;25.51;42.47
70154;DHT22;57519;51.494;-2.626;2022-08-14T09:18:07;25.63;42.73
70154;DHT22;57519;51.494;-2.626;2022-08-14T09:20:33;25.85;42.50
70154;DHT22;57519;51.494;-2.626;2022-08-14T09:22:59;25.92;42.06
70154;DHT22;57519;51.494;-2.626;2022-08-14T09:25:24;26.12;41.99
70154;DHT22;57519;51.494;-2.626;2022-08-14T09:27:50;26.25;41.08
70154;DHT22;57519;51.494;-2.626;2022-08-14T09:30:16;26.13;41.45
70154;DHT22;57519;51.494;-2.626;2022-08-14T09:36:08;26.49;40.21
70154;DHT22;57519;51.494;-2.626;2022-08-14T09:38:53;26.60;39.97
70154;DHT22;57519;51.494;-2.626;2022-08-14T09:41:41;26.57;40.47
70154;DHT22;57519;51.494;-2.626;2022-08-14T09:46:55;26.88;38.54
70154;DHT22;57519;51.494;-2.626;2022-08-14T09:49:35;26.87;37.38
70154;DHT22;57519;51.494;-2.626;2022-08-14T09:52:16;27.14;37.46
70154;DHT22;57519;51.494;-2.626;2022-08-14T09:54:46;27.35;36.41
70154;DHT22;57519;51.494;-2.626;2022-08-14T09:57:28;27.43;36.94
70154;DHT22;57519;51.494;-2.626;2022-08-14T09:59:57;27.43;36.52
70154;DHT22;57519;51.494;-2.626;2022-08-14T10:07:49;27.41;36.88
70154;DHT22;57519;51.494;-2.626;2022-08-14T10:10:28;27.70;35.35
70154;DHT22;57519;51.494;-2.626;2022-08-14T10:12:54;28.07;35.41
70154;DHT22;57519;51.494;-2.626;2022-08-14T10:15:23;28.17;35.02
70154;DHT22;57519;51.494;-2.626;2022-08-14T10:17:50;28.28;35.04
70154;DHT22;57519;51.494;-2.626;2022-08-14T10:20:33;28.41;34.82
70154;DHT22;57519;51.494;-2.626;2022-08-14T10:23:16;28.38;34.28
70154;DHT22;57519;51.494;-2.626;2022-08-14T10:25:45;28.60;34.05
70154;DHT22;57519;51.494;-2.626;2022-08-14T10:28:16;28.94;33.24
70154;DHT22;57519;51.494;-2.626;2022-08-14T10:30:43;29.15;32.35
70154;DHT22;57519;51.494;-2.626;2022-08-14T10:33:30;29.02;30.91
70154;DHT22;57519;51.494;-2.626;2022-08-14T10:35:57;28.99;32.46
70154;DHT22;57519;51.494;-2.626;2022-08-14T10:38:32;28.97;32.81
70154;DHT22;57519;51.494;-2.626;2022-08-14T10:41:15;29.03;32.15
70154;DHT22;57519;51.494;-2.626;2022-08-14T10:43:42;28.94;32.19
70154;DHT22;57519;51.494;-2.626;2022-08-14T10:46:13;28.97;33.45
70154;DHT22;57519;51.494;-2.626;2022-08-14T10:48:39;29.17;33.52
70154;DHT22;57519;51.494;-2.626;2022-08-14T10:51:05;29.27;32.49
70154;DHT22;57519;51.494;-2.626;2022-08-14T10:53:32;29.31;32.05
70154;DHT22;57519;51.494;-2.626;2022-08-14T10:56:01;29.30;32.28
70154;DHT22;57519;51.494;-2.626;2022-08-14T10:58:31;29.52;32.50
70154;DHT22;57519;51.494;-2.626;2022-08-14T11:00:58;29.73;31.98
70154;DHT22;57519;51.494;-2.626;2022-08-14T11:03:36;29.76;31.93
70154;DHT22;57519;51.494;-2.626;2022-08-14T11:06:14;29.73;30.36
70154;DHT22;57519;51.494;-2.626;2022-08-14T11:08:42;29.76;29.82
70154;DHT22;57519;51.494;-2.626;2022-08-14T11:11:08;29.68;29.50
70154;DHT22;57519;51.494;-2.626;2022-08-14T11:13:33;30.09;29.30
70154;DHT22;57519;51.494;-2.626;2022-08-14T11:16:00;30.26;28.35
70154;DHT22;57519;51.494;-2.626;2022-08-14T11:18:27;30.21;28.18
70154;DHT22;57519;51.494;-2.626;2022-08-14T11:20:56;30.29;28.92
70154;DHT22;57519;51.494;-2.626;2022-08-14T11:23:30;30.17;29.17
70154;DHT22;57519;51.494;-2.626;2022-08-14T11:25:58;30.16;29.67
70154;DHT22;57519;51.494;-2.626;2022-08-14T11:28:26;30.43;27.55
70154;DHT22;57519;51.494;-2.626;2022-08-14T11:30:53;30.56;28.23
70154;DHT22;57519;51.494;-2.626;2022-08-14T11:33:23;30.88;27.18
70154;DHT22;57519;51.494;-2.626;2022-08-14T11:35:49;30.94;26.43
70154;DHT22;57519;51.494;-2.626;2022-08-14T11:38:15;31.23;26.53
70154;DHT22;57519;51.494;-2.626;2022-08-14T11:40:42;31.22;26.94
70154;DHT22;57519;51.494;-2.626;2022-08-14T11:43:08;31.21;26.56
70154;DHT22;57519;51.494;-2.626;2022-08-14T11:45:36;31.23;26.87
70154;DHT22;57519;51.494;-2.626;2022-08-14T11:50:38;31.13;26.48
70154;DHT22;57519;51.494;-2.626;2022-08-14T11:53:05;31.02;27.44
70154;DHT22;57519;51.494;-2.626;2022-08-14T11:55:36;31.53;27.04
70154;DHT22;57519;51.494;-2.626;2022-08-14T11:58:09;31.53;26.18
70154;DHT22;57519;51.494;-2.626;2022-08-14T12:00:49;31.29;26.46
70154;DHT22;57519;51.494;-2.626;2022-08-14T12:03:15;31.23;26.73
70154;DHT22;57519;51.494;-2.626;2022-08-14T12:05:40;31.29;26.63
70154;DHT22;57519;51.494;-2.626;2022-08-14T12:08:09;31.40;26.68
70154;DHT22;57519;51.494;-2.626;2022-08-14T12:10:40;31.42;26.51
70154;DHT22;57519;51.494;-2.626;2022-08-14T12:13:17;31.40;26.06
70154;DHT22;57519;51.494;-2.626;2022-08-14T12:15:45;31.51;25.81
70154;DHT22;57519;51.494;-2.626;2022-08-14T12:18:14;31.39;25.94
70154;DHT22;57519;51.494;-2.626;2022-08-14T12:20:40;31.61;25.85
70154;DHT22;57519;51.494;-2.626;2022-08-14T12:23:21;31.53;25.34
70154;DHT22;57519;51.494;-2.626;2022-08-14T12:25:47;31.60;26.36
70154;DHT22;57519;51.494;-2.626;2022-08-14T12:28:13;31.85;25.53
70154;DHT22;57519;51.494;-2.626;2022-08-14T12:30:43;31.78;25.45
70154;DHT22;57519;51.494;-2.626;2022-08-14T12:33:26;32.02;24.96
70154;DHT22;57519;51.494;-2.626;2022-08-14T12:35:54;32.40;24.55
70154;DHT22;57519;51.494;-2.626;2022-08-14T12:38:34;32.32;24.38
70154;DHT22;57519;51.494;-2.626;2022-08-14T12:41:05;32.35;24.32
70154;DHT22;57519;51.494;-2.626;2022-08-14T12:43:47;32.32;24.22
70154;DHT22;57519;51.494;-2.626;2022-08-14T12:48:50;32.66;23.75
70154;DHT22;57519;51.494;-2.626;2022-08-14T12:51:21;32.82;23.42
70154;DHT22;57519;51.494;-2.626;2022-08-14T12:53:50;32.79;22.85
70154;DHT22;57519;51.494;-2.626;2022-08-14T12:56:18;32.76;23.41
70154;DHT22;57519;51.494;-2.626;2022-08-14T12:58:49;32.73;23.74
70154;DHT22;57519;51.494;-2.626;2022-08-14T13:01:23;32.70;23.25
70154;DHT22;57519;51.494;-2.626;2022-08-14T13:03:50;32.60;23.23
70154;DHT22;57519;51.494;-2.626;2022-08-14T13:06:17;32.48;23.72
70154;DHT22;57519;51.494;-2.626;2022-08-14T13:08:43;32.49;23.84
70154;DHT22;57519;51.494;-2.626;2022-08-14T13:11:13;32.72;23.24
70154;DHT22;57519;51.494;-2.626;2022-08-14T13:13:42;32.94;23.27
70154;DHT22;57519;51.494;-2.626;2022-08-14T13:16:11;32.79;23.97
70154;DHT22;57519;51.494;-2.626;2022-08-14T13:18:41;32.86;22.95
70154;DHT22;57519;51.494;-2.626;2022-08-14T13:21:10;32.64;23.42
70154;DHT22;57519;51.494;-2.626;2022-08-14T13:23:40;32.64;23.78
70154;DHT22;57519;51.494;-2.626;2022-08-14T13:26:07;32.94;22.90
70154;DHT22;57519;51.494;-2.626;2022-08-14T13:28:37;32.90;23.50
70154;DHT22;57519;51.494;-2.626;2022-08-14T13:31:06;33.10;22.88
70154;DHT22;57519;51.494;-2.626;2022-08-14T13:33:33;33.14;23.23
70154;DHT22;57519;51.494;-2.626;2022-08-14T13:36:01;33.31;22.98
70154;DHT22;57519;51.494;-2.626;2022-08-14T13:38:27;33.47;22.04
70154;DHT22;57519;51.494;-2.626;2022-08-14T13:40:56;33.62;22.47
70154;DHT22;57519;51.494;-2.626;2022-08-14T13:43:22;33.48;22.23
70154;DHT22;57519;51.494;-2.626;2022-08-14T13:45:51;33.47;22.38
70154;DHT22;57519;51.494;-2.626;2022-08-14T13:48:21;33.62;21.85
70154;DHT22;57519;51.494;-2.626;2022-08-14T13:50:52;33.61;21.96
70154;DHT22;57519;51.494;-2.626;2022-08-14T13:53:22;33.72;22.18
70154;DHT22;57519;51.494;-2.626;2022-08-14T13:55:50;33.47;21.98
70154;DHT22;57519;51.494;-2.626;2022-08-14T13:58:15;33.80;23.32
70154;DHT22;57519;51.494;-2.626;2022-08-14T14:00:45;33.80;22.16
70154;DHT22;57519;51.494;-2.626;2022-08-14T14:03:12;33.68;21.37
70154;DHT22;57519;51.494;-2.626;2022-08-14T14:05:38;33.44;21.86
70154;DHT22;57519;51.494;-2.626;2022-08-14T14:08:05;33.58;22.28
70154;DHT22;57519;51.494;-2.626;2022-08-14T14:10:34;33.44;21.54
70154;DHT22;57519;51.494;-2.626;2022-08-14T14:13:02;33.82;21.86
70154;DHT22;57519;51.494;-2.626;2022-08-14T14:15:29;33.89;21.60
70154;DHT22;57519;51.494;-2.626;2022-08-14T14:17:55;34.02;21.41
70154;DHT22;57519;51.494;-2.626;2022-08-14T14:20:22;34.10;21.35
70154;DHT22;57519;51.494;-2.626;2022-08-14T14:22:49;34.19;21.59
70154;DHT22;57519;51.494;-2.626;2022-08-14T14:25:17;34.41;21.73
70154;DHT22;57519;51.494;-2.626;2022-08-14T14:27:45;34.32;21.49
70154;DHT22;57519;51.494;-2.626;2022-08-14T14:30:12;34.33;21.50
70154;DHT22;57519;51.494;-2.626;2022-08-14T14:32:40;34.44;21.70
70154;DHT22;57519;51.494;-2.626;2022-08-14T14:35:08;34.45;21.40
70154;DHT22;57519;51.494;-2.626;2022-08-14T14:37:37;34.41;21.75
70154;DHT22;57519;51.494;-2.626;2022-08-14T14:40:03;34.03;21.81
70154;DHT22;57519;51.494;-2.626;2022-08-14T14:42:31;33.95;22.21
70154;DHT22;57519;51.494;-2.626;2022-08-14T14:45:25;34.06;22.54
70154;DHT22;57519;51.494;-2.626;2022-08-14T14:47:53;33.78;22.23
70154;DHT22;57519;51.494;-2.626;2022-08-14T14:50:20;33.73;23.20
70154;DHT22;57519;51.494;-2.626;2022-08-14T14:52:48;33.93;22.86
70154;DHT22;57519;51.494;-2.626;2022-08-14T14:55:16;33.89;23.13
70154;DHT22;57519;51.494;-2.626;2022-08-14T14:57:42;33.52;23.69
70154;DHT22;57519;51.494;-2.626;2022-08-14T15:00:14;33.41;23.16
70154;DHT22;57519;51.494;-2.626;2022-08-14T15:02:45;33.12;24.02
70154;DHT22;57519;51.494;-2.626;2022-08-14T15:05:12;33.04;23.69
70154;DHT22;57519;51.494;-2.626;2022-08-14T15:07:38;32.84;23.82
70154;DHT22;57519;51.494;-2.626;2022-08-14T15:10:05;32.77;23.75
70154;DHT22;57519;51.494;-2.626;2022-08-14T15:12:31;32.83;23.51
70154;DHT22;57519;51.494;-2.626;2022-08-14T15:14:57;32.79;24.42
70154;DHT22;57519;51.494;-2.626;2022-08-14T15:17:23;32.64;23.82
70154;DHT22;57519;51.494;-2.626;2022-08-14T15:19:49;32.48;24.20
70154;DHT22;57519;51.494;-2.626;2022-08-14T15:22:15;32.45;25.89
70154;DHT22;57519;51.494;-2.626;2022-08-14T15:24:41;32.39;24.36
70154;DHT22;57519;51.494;-2.626;2022-08-14T15:27:06;32.35;24.38
70154;DHT22;57519;51.494;-2.626;2022-08-14T15:29:33;32.33;24.19
70154;DHT22;57519;51.494;-2.626;2022-08-14T15:32:07;32.38;25.14
70154;DHT22;57519;51.494;-2.626;2022-08-14T15:34:33;32.39;25.29
70154;DHT22;57519;51.494;-2.626;2022-08-14T15:36:59;32.43;24.40
70154;DHT22;57519;51.494;-2.626;2022-08-14T15:39:24;32.24;24.27
70154;DHT22;57519;51.494;-2.626;2022-08-14T15:41:50;32.11;24.50
70154;DHT22;57519;51.494;-2.626;2022-08-14T15:44:15;32.21;24.91
70154;DHT22;57519;51.494;-2.626;2022-08-14T15:46:41;32.26;24.91
70154;DHT22;57519;51.494;-2.626;2022-08-14T15:49:06;32.19;25.37